OIMC  Sarakhs Airport

Add Bookmark

Sarakhs, Iran

Status IATA
Operational CKT
Latitude Longitude
36° 30' 4" N 61° 3' 53" E
36.501202 61.064899
Local (DST + 5) UTC (GMT + 4)
Jul 25, 2014 10:44 Jul 25, 2014 18:14
Sunrise-Sunset Local UTC
Begin Civil Twilight 04:56 00:26
Sunrise 05:25 00:55
Sunset 07:39 15:09
End Civil Twilight 08:08 15:38

Current Weather

METAR Observed VFR
OIMC 251700Z 33008KT CAVOK 29/03 Q1007 Fri, Jul 25, 2014 @ 17:00 UTC
(1 Hour, 14 Minutes ago)
Visual Flight Rules

Decoded METAR

Wind Visibility Clouds Conditions
330° at 8 knots (15 kph) 10 km or more
  • Clear skies
  • No significant weather
Temperatures Readings Precipitation
Current Temp 29°C (84°F)
Dewpoint 3°C (37°F)
Humidity 19%
Altimeter 29.73"Hg
Sea Level Pressure 1007mb
Field Elevation 944.88'
None Recorded

Additional weather within a 185.2km radius of OIMC

Map ICAO Location
OIMM 130.8km W (257°)
UTAM 144.5km N (030°)

24 Hour Weather History

Loading
-

24 Hour Weather Graphs

Loading
-

CheckWX.com is intended as a tool to help pilots better visualize weather data. It is not intended as a substitute for an official weather briefing obtained from a Flight Service Station. CheckWX.com does not meet the FAA requirements for an official pre-flight weather briefing. Therefore, it's important that pilots still call and obtain an official FSS pre-flight weather briefing.